Time;durP1;ratioP1;P1;durP2;ratioP2;P2;SDS_P1;SDS_P2;PMS_P1;PMS_P2;Temp;Humidity;BMP_temperature;BMP_pressure;BME280_temperature;BME280_humidity;BME280_pressure;Samples;Min_cycle;Max_cycle;Signal;HPM_P1;HPM_P2
2022/06/22 03:02:03;;;;;;;1.00;1.00;;;23.50;76.70;;;;;;5492528;22;20522;-72
2022/06/22 03:04:30;;;;;;;0.80;0.80;;;23.50;76.50;;;;;;5035159;28;20802;-71
2022/06/22 03:06:57;;;;;;;0.97;0.90;;;23.50;76.60;;;;;;5035429;28;20442;-72
2022/06/22 03:09:26;;;;;;;0.80;0.80;;;23.60;76.50;;;;;;5035320;28;20548;-71
2022/06/22 03:11:56;;;;;;;0.80;0.80;;;23.60;76.40;;;;;;5035330;28;20470;-71
2022/06/22 03:14:27;;;;;;;1.20;1.10;;;23.60;76.30;;;;;;5036791;28;20447;-71
2022/06/22 03:16:57;;;;;;;0.80;0.80;;;23.70;76.00;;;;;;5035290;28;20435;-71
2022/06/22 03:19:29;;;;;;;1.00;0.90;;;23.80;76.00;;;;;;5035109;28;20907;-72
2022/06/22 03:21:57;;;;;;;0.93;0.93;;;23.90;75.80;;;;;;5034317;28;20471;-71
2022/06/22 03:24:33;;;;;;;1.00;0.93;;;23.90;75.60;;;;;;5035114;28;20451;-72
2022/06/22 03:27:03;;;;;;;0.90;0.90;;;23.80;76.40;;;;;;5034772;28;20783;-72
2022/06/22 03:29:34;;;;;;;0.80;0.80;;;23.70;77.00;;;;;;5035033;28;20514;-72
2022/06/22 03:32:06;;;;;;;1.20;1.10;;;23.70;77.00;;;;;;5034904;28;20517;-71
2022/06/22 03:34:39;;;;;;;1.00;0.90;;;23.80;76.90;;;;;;5035000;28;20446;-72
2022/06/22 03:37:13;;;;;;;1.03;0.93;;;23.40;78.10;;;;;;5034875;28;20427;-71
2022/06/22 03:39:45;;;;;;;0.90;0.90;;;23.40;78.10;;;;;;5034859;28;20432;-71
2022/06/22 03:42:18;;;;;;;1.00;1.00;;;23.20;79.00;;;;;;5034889;28;20473;-71
2022/06/22 03:44:48;;;;;;;1.00;0.90;;;23.20;79.50;;;;;;5034739;28;20486;-72
2022/06/22 03:47:20;;;;;;;0.90;0.80;;;23.20;79.40;;;;;;5034401;28;20899;-71
2022/06/22 03:49:57;;;;;;;0.80;0.80;;;23.20;79.50;;;;;;5034568;28;20474;-71
2022/06/22 03:52:31;;;;;;;0.90;0.90;;;23.20;79.30;;;;;;5034527;28;20459;-71
2022/06/22 03:55:03;;;;;;;1.10;1.00;;;23.30;79.10;;;;;;5034826;28;20515;-71
2022/06/22 03:57:34;;;;;;;0.90;0.90;;;23.40;78.90;;;;;;5034521;28;20832;-72
2022/06/22 04:00:02;;;;;;;0.90;0.90;;;23.50;78.70;;;;;;5034407;28;20432;-71
2022/06/22 04:02:29;;;;;;;1.00;0.90;;;23.50;78.40;;;;;;5033907;28;20482;-71
2022/06/22 04:04:58;;;;;;;1.17;1.07;;;23.50;78.50;;;;;;5034315;28;20505;-71
2022/06/22 04:07:29;;;;;;;1.00;0.90;;;23.60;78.40;;;;;;5034295;28;20454;-71
2022/06/22 04:09:57;;;;;;;1.23;1.00;;;23.60;78.20;;;;;;5034205;28;20885;-71
2022/06/22 04:12:29;;;;;;;0.93;0.93;;;23.70;77.70;;;;;;5034144;28;20471;-72
2022/06/22 04:15:05;;;;;;;0.90;0.90;;;23.80;77.40;;;;;;5034151;28;20463;-72
2022/06/22 04:17:40;;;;;;;1.10;1.10;;;23.80;77.20;;;;;;5033805;28;20899;-71
2022/06/22 04:20:19;;;;;;;1.37;1.27;;;23.90;76.80;;;;;;5034080;28;20489;-71
2022/06/22 04:22:51;;;;;;;0.80;0.80;;;24.00;76.90;;;;;;5033926;28;20966;-71
2022/06/22 04:25:23;;;;;;;1.50;0.93;;;23.90;76.80;;;;;;5033999;28;20485;-71
2022/06/22 04:27:52;;;;;;;1.00;0.90;;;24.00;76.80;;;;;;5033591;28;20903;-71
2022/06/22 04:30:20;;;;;;;0.80;0.80;;;24.00;76.60;;;;;;5033761;28;20540;-71
2022/06/22 04:32:54;;;;;;;0.80;0.80;;;24.00;76.60;;;;;;5033342;28;20966;-71
2022/06/22 04:35:32;;;;;;;0.90;0.90;;;24.10;76.50;;;;;;5033808;28;20436;-72
2022/06/22 04:38:03;;;;;;;0.80;0.80;;;24.10;76.40;;;;;;5033733;28;20431;-71
2022/06/22 04:40:36;;;;;;;1.00;0.90;;;24.10;76.30;;;;;;5033604;28;20435;-72
2022/06/22 04:43:05;;;;;;;0.90;0.80;;;24.20;76.20;;;;;;5033772;28;20436;-71
2022/06/22 04:45:35;;;;;;;1.47;0.87;;;24.20;76.00;;;;;;5033595;28;20447;-71
2022/06/22 04:48:06;;;;;;;0.80;0.70;;;24.30;75.80;;;;;;5033614;28;20466;-72
2022/06/22 04:50:35;;;;;;;0.80;0.80;;;24.30;74.70;;;;;;5033446;28;20883;-71
2022/06/22 04:53:02;;;;;;;1.00;0.77;;;24.30;74.10;;;;;;5033528;28;20462;-71
2022/06/22 04:55:38;;;;;;;0.90;0.90;;;24.40;74.50;;;;;;5033563;28;20529;-71
2022/06/22 04:58:18;;;;;;;1.00;1.00;;;24.40;75.00;;;;;;5033572;28;20894;-72
2022/06/22 05:00:47;;;;;;;0.90;0.90;;;24.30;76.00;;;;;;5033292;28;20525;-72
2022/06/22 05:03:15;;;;;;;0.87;0.87;;;24.20;76.40;;;;;;5033450;28;20431;-72
2022/06/22 05:05:43;;;;;;;1.10;1.10;;;24.20;76.60;;;;;;5033020;28;20859;-72
2022/06/22 05:08:17;;;;;;;1.10;1.10;;;24.10;76.70;;;;;;5033350;28;20451;-71
2022/06/22 05:10:49;;;;;;;1.20;1.10;;;24.20;76.70;;;;;;5032926;28;21060;-71
2022/06/22 05:13:17;;;;;;;0.80;0.80;;;24.20;76.60;;;;;;5033043;28;20968;-71
2022/06/22 05:15:47;;;;;;;1.20;1.10;;;24.20;76.20;;;;;;5033273;28;20447;-72
2022/06/22 05:18:18;;;;;;;0.90;0.90;;;24.20;76.20;;;;;;5033625;28;20451;-71
2022/06/22 05:20:54;;;;;;;1.00;1.00;;;24.30;75.50;;;;;;5033168;28;20907;-71
2022/06/22 05:23:24;;;;;;;1.00;0.90;;;24.40;75.50;;;;;;5033239;28;20435;-71
2022/06/22 05:25:54;;;;;;;0.70;0.70;;;24.50;76.00;;;;;;5033528;28;20501;-71
2022/06/22 05:28:30;;;;;;;1.00;0.90;;;24.70;75.40;;;;;;5033141;28;20447;-72
2022/06/22 05:31:02;;;;;;;1.03;0.93;;;24.80;74.80;;;;;;5033035;28;20509;-72
2022/06/22 05:33:30;;;;;;;1.27;0.90;;;24.90;74.30;;;;;;5033160;28;20427;-71
2022/06/22 05:36:03;;;;;;;0.80;0.80;;;25.00;74.20;;;;;;5032792;28;20485;-72
2022/06/22 05:38:32;;;;;;;0.70;0.70;;;25.10;75.30;;;;;;5032817;28;20424;-71
2022/06/22 05:41:04;;;;;;;0.83;0.80;;;25.00;74.90;;;;;;5032958;28;20521;-72
2022/06/22 05:43:32;;;;;;;0.83;0.80;;;25.10;73.60;;;;;;5033354;28;20436;-71
2022/06/22 05:46:02;;;;;;;1.00;1.00;;;25.20;71.50;;;;;;5036931;28;20459;-72
2022/06/22 05:48:32;;;;;;;0.80;0.80;;;25.20;71.80;;;;;;5037102;28;20485;-71
2022/06/22 05:51:05;;;;;;;0.80;0.80;;;25.20;73.00;;;;;;5036698;28;20493;-71
2022/06/22 05:53:38;;;;;;;1.10;0.90;;;25.20;72.90;;;;;;5036784;28;20466;-72
2022/06/22 05:56:13;;;;;;;0.90;0.90;;;24.70;74.80;;;;;;5036716;28;20435;-71
2022/06/22 05:58:47;;;;;;;0.90;0.90;;;24.30;75.70;;;;;;5036285;28;20895;-71
2022/06/22 06:01:26;;;;;;;1.33;1.10;;;23.90;75.80;;;;;;5036207;28;20835;-71
2022/06/22 06:04:00;;;;;;;1.10;1.00;;;23.60;76.60;;;;;;5036576;28;20501;-71
2022/06/22 06:06:30;;;;;;;1.00;1.00;;;23.50;77.10;;;;;;5036492;28;20467;-72
2022/06/22 06:09:02;;;;;;;0.90;0.90;;;23.60;77.20;;;;;;5036502;28;20431;-72
2022/06/22 06:11:33;;;;;;;0.90;0.90;;;23.70;77.20;;;;;;5036291;28;20498;-71
2022/06/22 06:14:03;;;;;;;0.90;0.90;;;23.60;77.20;;;;;;5036340;28;20435;-71
2022/06/22 06:16:41;;;;;;;1.03;0.90;;;23.60;77.10;;;;;;5036372;28;20497;-72
2022/06/22 06:19:08;;;;;;;1.07;1.07;;;23.60;77.50;;;;;;5036847;28;20437;-72
2022/06/22 06:21:38;;;;;;;1.00;0.90;;;23.60;78.10;;;;;;5036114;28;20459;-71
2022/06/22 06:24:10;;;;;;;1.00;0.90;;;23.60;78.90;;;;;;5036197;28;20451;-71
2022/06/22 06:29:32;;;;;;;1.10;1.10;;;23.10;80.20;;;;;;4995872;28;20430;-72
2022/06/22 06:32:06;;;;;;;0.80;0.80;;;22.80;80.90;;;;;;5036257;28;20503;-72
2022/06/22 06:34:37;;;;;;;0.90;0.90;;;22.90;80.80;;;;;;5036067;28;20497;-72
2022/06/22 06:37:12;;;;;;;1.00;1.00;;;22.90;80.80;;;;;;5036132;28;20431;-72
2022/06/22 06:39:45;;;;;;;0.90;0.90;;;23.00;80.60;;;;;;5036024;28;20778;-71
2022/06/22 06:42:24;;;;;;;0.77;0.77;;;23.00;80.60;;;;;;5035948;28;20467;-70
2022/06/22 06:44:52;;;;;;;0.90;0.90;;;23.00;80.60;;;;;;5035868;28;20485;-70
2022/06/22 06:47:24;;;;;;;0.80;0.80;;;22.90;80.30;;;;;;5035796;28;20447;-70
2022/06/22 06:49:56;;;;;;;1.10;1.00;;;22.70;81.40;;;;;;5035618;28;20467;-70
2022/06/22 06:52:33;;;;;;;0.80;0.80;;;22.50;82.90;;;;;;5035715;28;20467;-70
2022/06/22 06:55:04;;;;;;;0.97;0.90;;;22.60;83.40;;;;;;5035607;28;20460;-71
2022/06/22 06:57:32;;;;;;;1.20;0.90;;;22.60;82.50;;;;;;5035320;28;20427;-72
2022/06/22 07:00:04;;;;;;;0.90;0.90;;;22.70;83.00;;;;;;5036338;28;20935;-71
2022/06/22 07:02:34;;;;;;;1.00;1.00;;;22.80;82.90;;;;;;5036137;28;20572;-71
2022/06/22 07:05:04;;;;;;;1.03;0.97;;;22.80;82.80;;;;;;5035916;28;20486;-73
2022/06/22 07:07:38;;;;;;;0.90;0.90;;;23.00;82.80;;;;;;5035497;28;20474;-72
2022/06/22 07:10:11;;;;;;;1.27;1.00;;;23.10;82.40;;;;;;5035503;28;20467;-73
2022/06/22 07:12:43;;;;;;;1.00;1.00;;;23.20;82.30;;;;;;5035404;28;20478;-72
2022/06/22 07:15:15;;;;;;;1.30;1.10;;;23.40;82.30;;;;;;5035393;28;20770;-71
2022/06/22 07:17:42;;;;;;;0.90;0.90;;;23.50;82.00;;;;;;5035096;28;20874;-73
2022/06/22 07:20:17;;;;;;;1.30;1.10;;;23.50;82.00;;;;;;5035247;28;20451;-72
2022/06/22 07:22:49;;;;;;;1.10;1.00;;;23.60;82.00;;;;;;5035252;28;20858;-72
2022/06/22 07:25:21;;;;;;;1.20;0.90;;;23.60;82.20;;;;;;5035247;28;20431;-72
2022/06/22 07:27:54;;;;;;;1.10;1.00;;;23.60;82.30;;;;;;5034736;28;20443;-72
2022/06/22 07:30:26;;;;;;;1.47;1.37;;;23.60;82.30;;;;;;5034595;28;21052;-71
2022/06/22 07:32:59;;;;;;;1.10;1.10;;;23.60;82.00;;;;;;5034942;28;20435;-72
2022/06/22 07:35:30;;;;;;;1.10;1.10;;;23.60;82.00;;;;;;5034943;28;20478;-72
2022/06/22 07:38:06;;;;;;;1.50;1.30;;;23.70;81.50;;;;;;5034833;28;20436;-72
2022/06/22 07:40:34;;;;;;;1.27;1.17;;;23.70;80.90;;;;;;5034705;28;20513;-71
2022/06/22 07:43:01;;;;;;;1.10;0.97;;;23.70;81.10;;;;;;5034656;28;20452;-72
2022/06/22 07:45:29;;;;;;;1.17;1.00;;;23.70;80.50;;;;;;5034717;28;20487;-72
2022/06/22 07:48:01;;;;;;;1.10;1.10;;;23.80;80.60;;;;;;5034625;28;20466;-72
2022/06/22 07:50:32;;;;;;;1.00;1.00;;;23.90;79.70;;;;;;5034452;28;20460;-71
2022/06/22 07:53:04;;;;;;;1.13;1.03;;;24.00;80.70;;;;;;5034588;28;20440;-70
2022/06/22 07:55:38;;;;;;;1.00;1.00;;;24.20;80.80;;;;;;5034451;28;20431;-70
2022/06/22 07:58:18;;;;;;;1.20;1.10;;;24.20;77.40;;;;;;5034549;28;20497;-71
2022/06/22 08:00:48;;;;;;;1.00;1.00;;;24.30;77.90;;;;;;5034256;28;20820;-72
2022/06/22 08:03:25;;;;;;;1.13;1.03;;;24.60;78.30;;;;;;5034366;28;20494;-71
2022/06/22 08:05:55;;;;;;;1.00;1.00;;;24.80;77.40;;;;;;5034321;28;20436;-72
2022/06/22 08:08:26;;;;;;;0.80;0.80;;;24.90;75.00;;;;;;5033519;28;20942;-71
2022/06/22 08:10:57;;;;;;;2.40;1.00;;;25.00;75.30;;;;;;5034016;28;20482;-71
2022/06/22 08:13:27;;;;;;;1.00;1.00;;;25.00;74.20;;;;;;5033833;28;20838;-72
2022/06/22 08:15:59;;;;;;;0.90;0.90;;;25.10;74.00;;;;;;5034121;28;20456;-73
2022/06/22 08:18:27;;;;;;;1.07;1.00;;;25.20;73.70;;;;;;5033742;28;20427;-71
2022/06/22 08:20:55;;;;;;;1.10;1.00;;;25.20;74.10;;;;;;5033927;28;20455;-71
2022/06/22 08:23:26;;;;;;;1.07;1.07;;;25.20;73.80;;;;;;5034125;28;20497;-71
2022/06/22 08:25:53;;;;;;;1.00;1.00;;;25.20;73.20;;;;;;5033985;28;20431;-71
2022/06/22 08:28:22;;;;;;;0.90;0.90;;;25.30;73.40;;;;;;5033874;28;20451;-71
2022/06/22 08:30:53;;;;;;;1.10;1.00;;;25.30;74.10;;;;;;5033608;28;20491;-72
2022/06/22 08:33:24;;;;;;;0.90;0.90;;;25.20;72.60;;;;;;5033800;28;20462;-72
2022/06/22 08:35:54;;;;;;;1.20;1.10;;;25.20;73.30;;;;;;5033799;28;20436;-72
2022/06/22 08:38:27;;;;;;;0.90;0.90;;;25.20;73.30;;;;;;5033821;28;20481;-71
2022/06/22 08:40:59;;;;;;;0.90;0.90;;;25.20;74.00;;;;;;5033365;28;20845;-71
2022/06/22 08:43:35;;;;;;;1.00;1.00;;;25.00;72.40;;;;;;5034263;28;20439;-71
2022/06/22 08:46:18;;;;;;;0.97;0.97;;;24.80;73.70;;;;;;5033692;28;20473;-71
2022/06/22 08:49:06;;;;;;;1.03;0.90;;;24.50;71.70;;;;;;5033351;28;20439;-71
2022/06/22 08:51:51;;;;;;;1.20;1.10;;;24.40;73.30;;;;;;5033487;28;20483;-71
2022/06/22 08:54:38;;;;;;;0.90;0.90;;;24.30;74.30;;;;;;5033521;28;20435;-71
2022/06/22 08:57:11;;;;;;;1.00;0.90;;;24.20;76.50;;;;;;5033480;28;20485;-72
2022/06/22 09:00:08;;;;;;;1.30;1.20;;;24.30;77.30;;;;;;5033468;28;20802;-71
2022/06/22 09:03:16;;;;;;;1.10;1.10;;;24.40;78.40;;;;;;5028077;28;20852;-71
2022/06/22 09:05:58;;;;;;;1.10;1.10;;;24.10;78.70;;;;;;5033397;28;20518;-71
2022/06/22 09:09:02;;;;;;;1.00;1.00;;;24.00;79.90;;;;;;5033382;28;20522;-71
2022/06/22 09:11:33;;;;;;;1.10;1.10;;;23.90;80.20;;;;;;4972123;28;20486;-72
2022/06/22 09:14:32;;;;;;;0.93;0.90;;;24.00;81.00;;;;;;5021801;28;20466;-72
2022/06/22 09:17:12;;;;;;;1.10;1.00;;;23.90;81.40;;;;;;5029048;28;21001;-71
2022/06/22 09:19:55;;;;;;;1.30;1.20;;;23.80;82.10;;;;;;5035216;28;20852;-72
2022/06/22 09:22:35;;;;;;;1.27;1.10;;;24.00;82.10;;;;;;5037479;28;20466;-71
2022/06/22 09:25:08;;;;;;;1.00;1.00;;;23.80;82.90;;;;;;5037318;28;20431;-71
2022/06/22 09:27:44;;;;;;;1.77;1.67;;;23.80;83.30;;;;;;5037301;28;20426;-71
2022/06/22 09:30:23;;;;;;;1.43;1.10;;;24.00;82.80;;;;;;5037162;28;20459;-71
2022/06/22 09:33:29;;;;;;;1.00;0.90;;;24.10;82.50;;;;;;5036948;28;20985;-71
2022/06/22 09:36:18;;;;;;;1.00;1.00;;;24.30;81.90;;;;;;5037013;28;20921;-70
2022/06/22 09:39:02;;;;;;;1.20;1.10;;;24.40;80.40;;;;;;5037173;28;20423;-70
2022/06/22 09:41:39;;;;;;;1.00;1.00;;;24.50;80.60;;;;;;5036984;28;20513;-71
2022/06/22 09:44:39;;;;;;;1.00;1.00;;;24.60;79.50;;;;;;5037035;28;20457;-71
2022/06/22 09:47:45;;;;;;;0.93;0.93;;;24.70;79.30;;;;;;5001584;28;20799;-70
2022/06/22 09:50:36;;;;;;;1.40;1.07;;;24.70;78.20;;;;;;5031495;28;20455;-72
2022/06/22 09:53:28;;;;;;;1.23;1.13;;;24.70;77.70;;;;;;5003958;28;20861;-71
2022/06/22 09:56:22;;;;;;;1.43;1.00;;;24.60;78.20;;;;;;5036855;28;20785;-71
2022/06/22 09:59:30;;;;;;;1.10;1.10;;;24.60;78.30;;;;;;5036429;28;20869;-71
2022/06/22 10:02:14;;;;;;;1.30;1.20;;;24.50;78.80;;;;;;5010741;28;20483;-70
2022/06/22 10:05:22;;;;;;;0.80;0.80;;;24.60;79.30;;;;;;5036610;28;20489;-72
2022/06/22 10:07:59;;;;;;;0.90;0.90;;;24.60;78.90;;;;;;5036536;28;20459;-71
2022/06/22 10:10:39;;;;;;;0.90;0.90;;;24.30;79.00;;;;;;5036189;28;20435;-71
2022/06/22 10:13:45;;;;;;;1.33;1.10;;;24.20;79.70;;;;;;5036467;28;20427;-71
2022/06/22 10:16:38;;;;;;;1.20;1.10;;;23.80;81.30;;;;;;5036433;28;20439;-71
2022/06/22 10:19:23;;;;;;;1.10;1.10;;;23.50;82.90;;;;;;5036340;28;20431;-71
2022/06/22 10:22:03;;;;;;;1.07;1.07;;;23.20;83.40;;;;;;5036212;28;20864;-71
2022/06/22 10:24:53;;;;;;;1.30;1.20;;;23.00;84.50;;;;;;5036238;28;20678;-71
2022/06/22 10:27:37;;;;;;;1.40;1.10;;;23.20;84.50;;;;;;5035878;28;20945;-72
2022/06/22 10:30:22;;;;;;;1.20;1.10;;;23.40;84.00;;;;;;5035745;28;20493;-72
2022/06/22 10:33:18;;;;;;;0.97;0.97;;;23.50;83.40;;;;;;5036038;28;20463;-71
2022/06/22 10:36:31;;;;;;;1.00;1.00;;;23.60;84.10;;;;;;5034861;28;20486;-71
2022/06/22 10:39:23;;;;;;;1.10;1.10;;;23.70;84.20;;;;;;4974933;28;20452;-71
2022/06/22 10:45:13;;;;;;;1.10;1.00;;;24.00;83.80;;;;;;5030636;28;20442;-71
2022/06/22 10:48:08;;;;;;;1.23;1.13;;;24.10;82.30;;;;;;5036017;28;20636;-71
2022/06/22 10:50:44;;;;;;;1.23;1.23;;;24.00;82.60;;;;;;5035694;28;20486;-71
2022/06/22 10:53:51;;;;;;;1.30;1.20;;;24.00;83.00;;;;;;5035718;28;20431;-71
2022/06/22 10:56:46;;;;;;;1.20;1.10;;;24.00;83.30;;;;;;5035632;28;20446;-72
2022/06/22 10:59:27;;;;;;;1.10;1.10;;;24.10;82.70;;;;;;5035328;28;20898;-72
2022/06/22 11:02:23;;;;;;;1.10;1.10;;;23.90;82.20;;;;;;5035419;28;20466;-72
2022/06/22 11:05:06;;;;;;;1.10;1.10;;;23.90;82.10;;;;;;5035585;28;20481;-72
2022/06/22 11:08:03;;;;;;;1.33;1.23;;;24.00;82.00;;;;;;5035441;28;20541;-72
2022/06/22 11:10:58;;;;;;;1.20;1.20;;;24.10;81.50;;;;;;5035327;28;20467;-72
2022/06/22 11:13:55;;;;;;;1.10;1.10;;;24.20;81.60;;;;;;5035422;28;20486;-72
2022/06/22 11:16:47;;;;;;;1.13;1.10;;;24.10;81.10;;;;;;5035250;28;20858;-72
2022/06/22 11:19:44;;;;;;;1.30;1.20;;;23.70;82.00;;;;;;5035820;28;20432;-71
2022/06/22 11:22:29;;;;;;;1.30;1.20;;;23.40;82.40;;;;;;5034793;28;21005;-72
2022/06/22 11:31:57;;;;;;;1.30;1.20;;;23.30;83.10;;;;;;5034948;28;20486;-71
2022/06/22 11:34:45;;;;;;;1.20;1.10;;;23.40;83.50;;;;;;5035481;28;20489;-73
2022/06/22 11:37:25;;;;;;;1.07;1.03;;;23.40;83.10;;;;;;5034628;28;20803;-73
2022/06/22 11:40:16;;;;;;;1.13;1.03;;;23.30;83.40;;;;;;5034938;28;20435;-72
2022/06/22 11:42:51;;;;;;;0.90;0.90;;;23.20;84.00;;;;;;5033862;28;20463;-73
2022/06/22 11:45:54;;;;;;;1.00;1.00;;;23.20;84.00;;;;;;5035136;28;20433;-72
2022/06/22 11:48:34;;;;;;;1.00;1.00;;;23.20;83.70;;;;;;5034700;28;20447;-72
2022/06/22 11:51:14;;;;;;;1.20;1.10;;;23.00;83.90;;;;;;5034207;28;20835;-71
2022/06/22 11:54:32;;;;;;;1.10;1.00;;;22.80;85.60;;;;;;5034277;28;20968;-72
2022/06/22 11:57:08;;;;;;;1.30;1.20;;;22.90;84.90;;;;;;5009029;28;20946;-71
2022/06/22 11:59:50;;;;;;;1.03;1.03;;;22.90;84.50;;;;;;5034651;28;20435;-72
2022/06/22 12:02:51;;;;;;;1.10;1.00;;;22.70;84.90;;;;;;5034369;28;20529;-72
2022/06/22 12:05:44;;;;;;;0.90;0.90;;;22.70;85.80;;;;;;5034414;28;20484;-72
2022/06/22 12:08:44;;;;;;;1.00;1.00;;;22.80;86.10;;;;;;5034339;28;20427;-72
2022/06/22 12:11:18;;;;;;;0.80;0.80;;;22.70;84.10;;;;;;5034467;28;20467;-72
2022/06/22 12:16:52;;;;;;;1.00;0.90;;;22.40;84.20;;;;;;5034321;28;20786;-72
2022/06/22 12:19:32;;;;;;;0.80;0.80;;;22.50;84.10;;;;;;5033812;28;20485;-72
2022/06/22 12:22:16;;;;;;;1.57;1.10;;;22.50;85.00;;;;;;5034087;28;20459;-72
2022/06/22 12:25:11;;;;;;;0.97;0.87;;;22.80;85.20;;;;;;5034092;28;20486;-72
2022/06/22 12:27:41;;;;;;;1.00;1.00;;;23.00;83.60;;;;;;5033996;28;20432;-72
2022/06/22 12:30:29;;;;;;;1.10;1.00;;;23.30;83.30;;;;;;5033927;28;20424;-72
2022/06/22 12:33:02;;;;;;;1.43;1.30;;;23.50;82.80;;;;;;5033787;28;20467;-72
2022/06/22 12:35:37;;;;;;;1.30;1.00;;;23.80;81.90;;;;;;5033865;28;20521;-72
2022/06/22 12:38:12;;;;;;;1.07;0.97;;;23.60;80.50;;;;;;5033825;28;20431;-72
2022/06/22 12:40:46;;;;;;;1.43;1.33;;;23.40;81.80;;;;;;5033720;28;20474;-71
2022/06/22 12:44:00;;;;;;;1.37;1.13;;;23.20;81.00;;;;;;5034369;28;20432;-72
2022/06/22 12:46:43;;;;;;;1.00;0.90;;;23.10;81.20;;;;;;5033706;28;20427;-72
2022/06/22 12:49:24;;;;;;;1.17;1.00;;;23.20;82.10;;;;;;5033744;28;20427;-72
2022/06/22 12:51:57;;;;;;;1.07;0.93;;;23.30;80.30;;;;;;5034101;28;20494;-72
2022/06/22 12:54:29;;;;;;;1.10;1.00;;;23.00;81.90;;;;;;5033385;28;20431;-72
2022/06/22 12:57:01;;;;;;;0.80;0.80;;;23.00;82.00;;;;;;5033583;28;20494;-72
2022/06/22 12:59:33;;;;;;;1.10;1.00;;;22.70;81.90;;;;;;5033601;28;20482;-71
2022/06/22 13:02:02;;;;;;;1.10;0.90;;;22.50;84.00;;;;;;5033089;28;20525;-72
2022/06/22 13:04:32;;;;;;;0.90;0.90;;;22.50;84.20;;;;;;5033401;28;20443;-72
2022/06/22 13:07:04;;;;;;;1.03;0.93;;;22.30;85.20;;;;;;5033552;28;20424;-72
2022/06/22 13:09:32;;;;;;;1.13;1.00;;;22.30;84.80;;;;;;5033320;28;20432;-72
2022/06/22 13:12:02;;;;;;;1.23;1.13;;;22.30;84.20;;;;;;5033157;28;20605;-72
2022/06/22 13:14:36;;;;;;;1.50;1.40;;;22.60;83.60;;;;;;5033286;28;20485;-72
2022/06/22 13:17:14;;;;;;;1.17;1.00;;;22.60;83.10;;;;;;5033502;28;20493;-74
2022/06/22 13:19:50;;;;;;;1.20;1.10;;;22.70;82.60;;;;;;5033039;28;20850;-72
2022/06/22 13:22:24;;;;;;;1.00;0.90;;;22.90;83.10;;;;;;5033188;28;21033;-72
2022/06/22 13:24:58;;;;;;;1.10;1.00;;;22.80;81.30;;;;;;5033072;28;20841;-72
2022/06/22 13:27:35;;;;;;;1.30;1.10;;;22.80;81.50;;;;;;5033247;28;20513;-72
2022/06/22 13:30:15;;;;;;;1.00;0.90;;;23.00;82.60;;;;;;5033207;28;20431;-73
2022/06/22 13:32:49;;;;;;;0.93;0.90;;;23.20;81.30;;;;;;5032972;28;20902;-72
2022/06/22 13:35:25;;;;;;;2.30;1.20;;;23.40;80.00;;;;;;5033068;28;20431;-72
2022/06/22 13:38:03;;;;;;;1.50;1.00;;;23.70;78.10;;;;;;5033102;28;20466;-72
2022/06/22 13:40:38;;;;;;;1.10;1.00;;;24.00;79.50;;;;;;5033012;28;20462;-72
2022/06/22 13:43:30;;;;;;;1.10;1.00;;;24.20;78.20;;;;;;5033044;28;20426;-72
2022/06/22 13:46:13;;;;;;;1.17;1.07;;;24.60;77.90;;;;;;5032733;28;20880;-72
2022/06/22 13:48:47;;;;;;;1.00;0.90;;;24.90;77.50;;;;;;5032991;28;20483;-72
2022/06/22 13:51:44;;;;;;;1.40;1.10;;;25.20;77.80;;;;;;5032629;28;20894;-72
2022/06/22 13:54:48;;;;;;;1.43;1.33;;;25.50;74.10;;;;;;5032823;28;20478;-73
2022/06/22 13:57:19;;;;;;;1.10;1.00;;;25.60;74.50;;;;;;5033157;28;20447;-72
2022/06/22 13:59:55;;;;;;;1.10;1.00;;;25.70;73.50;;;;;;5032827;28;20498;-72
2022/06/22 14:02:31;;;;;;;1.30;1.00;;;25.90;73.70;;;;;;5032767;28;20478;-70
2022/06/22 14:05:05;;;;;;;1.23;1.13;;;26.00;73.70;;;;;;5034006;28;20511;-70
2022/06/22 14:07:36;;;;;;;1.10;1.10;;;26.20;74.30;;;;;;5036559;28;20838;-70
2022/06/22 14:10:17;;;;;;;1.10;1.00;;;26.40;73.40;;;;;;5036576;28;20557;-73
2022/06/22 14:12:50;;;;;;;1.20;1.10;;;26.30;72.30;;;;;;5036514;28;20479;-72
2022/06/22 14:15:28;;;;;;;1.20;1.10;;;26.30;71.80;;;;;;5036594;28;20840;-71
2022/06/22 14:17:58;;;;;;;1.30;1.20;;;26.10;71.00;;;;;;5036697;28;20439;-71
2022/06/22 14:20:30;;;;;;;1.20;1.10;;;25.90;71.40;;;;;;5036601;28;20505;-71
2022/06/22 14:23:02;;;;;;;1.33;1.20;;;25.70;72.60;;;;;;5036332;28;20831;-71
2022/06/22 14:25:40;;;;;;;1.30;1.20;;;25.70;72.70;;;;;;5036292;28;20502;-71
2022/06/22 14:28:12;;;;;;;1.23;1.07;;;25.60;73.40;;;;;;5036241;28;20427;-72
2022/06/22 14:30:48;;;;;;;1.30;1.20;;;25.40;74.00;;;;;;5036101;28;20427;-71
2022/06/22 14:33:40;;;;;;;1.90;1.30;;;25.30;73.80;;;;;;5035741;28;20466;-71
2022/06/22 14:36:19;;;;;;;1.60;1.30;;;25.30;72.00;;;;;;5036362;28;20488;-72
2022/06/22 14:38:56;;;;;;;1.20;1.10;;;25.20;72.50;;;;;;5036050;28;20423;-72
2022/06/22 14:41:30;;;;;;;1.20;1.10;;;25.40;72.90;;;;;;5035954;28;20912;-72
2022/06/22 14:44:17;;;;;;;1.20;1.10;;;25.20;72.30;;;;;;5036075;28;20419;-71
2022/06/22 14:47:03;;;;;;;1.13;1.03;;;25.00;73.10;;;;;;5035909;28;20424;-71
2022/06/22 14:49:35;;;;;;;1.10;1.00;;;25.00;74.10;;;;;;5036074;28;20492;-72
2022/06/22 14:52:10;;;;;;;1.40;1.10;;;24.80;75.00;;;;;;5035857;28;20459;-72
2022/06/22 14:54:45;;;;;;;1.67;1.10;;;24.90;75.30;;;;;;5035833;28;20478;-71
2022/06/22 14:57:22;;;;;;;1.47;1.00;;;25.00;75.30;;;;;;5035731;28;20432;-71
2022/06/22 15:00:08;;;;;;;1.50;1.40;;;24.80;76.10;;;;;;5035307;28;20803;-71
2022/06/22 15:02:43;;;;;;;1.07;0.97;;;24.50;76.20;;;;;;5035145;28;20493;-71
2022/06/22 15:05:17;;;;;;;1.20;1.10;;;24.60;76.60;;;;;;5035313;28;20419;-72
2022/06/22 15:07:49;;;;;;;1.60;1.20;;;24.70;76.70;;;;;;5035509;28;20912;-71
2022/06/22 15:10:24;;;;;;;1.40;1.30;;;24.80;76.40;;;;;;5035971;28;20489;-72
2022/06/22 15:12:58;;;;;;;1.20;1.10;;;24.80;75.90;;;;;;5035337;28;20473;-71
2022/06/22 15:15:34;;;;;;;1.20;1.00;;;24.60;76.30;;;;;;5036855;28;20490;-71
2022/06/22 15:18:12;;;;;;;0.90;0.90;;;24.60;75.40;;;;;;5034297;28;20485;-71
2022/06/22 15:20:45;;;;;;;1.13;1.03;;;24.40;75.40;;;;;;5035181;28;20435;-71
2022/06/22 15:23:18;;;;;;;1.07;0.97;;;24.40;75.00;;;;;;5035423;28;20460;-70
2022/06/22 15:25:55;;;;;;;1.07;0.97;;;24.40;75.80;;;;;;5035924;28;20435;-71
2022/06/22 15:28:32;;;;;;;1.23;1.13;;;24.00;76.20;;;;;;5035102;28;20439;-71
2022/06/22 15:31:17;;;;;;;1.30;1.20;;;24.00;76.80;;;;;;5034968;28;20470;-72
2022/06/22 15:33:50;;;;;;;1.30;1.10;;;24.20;77.90;;;;;;5034669;28;20475;-71
2022/06/22 15:36:27;;;;;;;1.20;1.10;;;24.30;76.70;;;;;;5034650;28;20907;-72
2022/06/22 15:39:00;;;;;;;1.20;1.10;;;24.30;77.10;;;;;;5034833;28;20431;-71
2022/06/22 15:41:35;;;;;;;1.00;0.90;;;24.10;76.40;;;;;;5034797;28;20502;-71
2022/06/22 15:44:14;;;;;;;0.90;0.90;;;24.10;77.00;;;;;;5035242;28;20473;-71
2022/06/22 15:46:49;;;;;;;1.17;1.00;;;24.20;77.70;;;;;;5034688;28;20501;-72
2022/06/22 15:49:24;;;;;;;1.20;1.10;;;24.20;77.40;;;;;;5034784;28;20441;-71
2022/06/22 15:51:55;;;;;;;1.07;0.97;;;24.20;78.90;;;;;;5034651;28;20875;-71
2022/06/22 15:54:31;;;;;;;1.10;1.00;;;24.10;78.90;;;;;;5034459;28;20541;-72
2022/06/22 15:57:04;;;;;;;1.10;1.00;;;23.80;79.40;;;;;;5034325;28;20427;-72
2022/06/22 15:59:38;;;;;;;1.10;1.10;;;23.90;80.20;;;;;;5034520;28;20489;-71
2022/06/22 16:02:24;;;;;;;1.17;1.07;;;23.80;80.10;;;;;;5034052;28;20487;-71
2022/06/22 16:04:58;;;;;;;1.53;1.17;;;24.00;80.10;;;;;;5034517;28;20431;-71
2022/06/22 16:07:29;;;;;;;1.37;1.10;;;24.10;80.50;;;;;;5034089;28;20847;-71
2022/06/22 16:10:02;;;;;;;1.00;0.90;;;24.00;80.20;;;;;;5034299;28;20528;-70
2022/06/22 16:15:29;;;;;;;1.27;1.17;;;23.70;80.30;;;;;;5034323;28;20402;-72
2022/06/22 16:18:04;;;;;;;1.30;1.20;;;23.60;80.60;;;;;;5034264;28;20510;-71
2022/06/22 16:20:36;;;;;;;0.90;0.80;;;23.60;80.80;;;;;;5034607;28;20431;-71
2022/06/22 16:23:08;;;;;;;1.10;1.00;;;23.40;81.10;;;;;;5034166;28;20527;-71
2022/06/22 16:25:50;;;;;;;1.10;1.00;;;23.40;81.00;;;;;;5033809;28;20983;-72
2022/06/22 16:28:23;;;;;;;1.00;1.00;;;23.40;80.80;;;;;;5033594;28;20431;-72
2022/06/22 16:30:59;;;;;;;1.10;1.00;;;23.60;80.20;;;;;;5033837;28;20529;-72
2022/06/22 16:33:31;;;;;;;1.00;0.90;;;23.60;80.50;;;;;;5033895;28;20524;-71
2022/06/22 16:36:16;;;;;;;1.27;1.17;;;23.50;80.60;;;;;;5033533;28;20857;-71
2022/06/22 16:38:54;;;;;;;0.90;0.90;;;23.40;80.60;;;;;;5033865;28;20846;-71
2022/06/22 16:41:32;;;;;;;1.30;1.00;;;23.40;81.30;;;;;;5033808;28;20475;-71
2022/06/22 16:44:04;;;;;;;0.80;0.80;;;23.50;80.80;;;;;;5033756;28;20435;-72
2022/06/22 16:46:44;;;;;;;1.10;0.97;;;23.50;80.50;;;;;;5033717;28;20438;-71
2022/06/22 16:49:16;;;;;;;1.20;0.97;;;23.70;80.00;;;;;;5034043;28;20432;-72
2022/06/22 16:51:52;;;;;;;1.20;1.10;;;23.60;79.00;;;;;;5033601;28;20521;-72
2022/06/22 16:54:23;;;;;;;1.20;1.10;;;23.50;79.50;;;;;;5033295;28;21024;-72
2022/06/22 16:56:59;;;;;;;0.93;0.93;;;23.50;79.60;;;;;;5033290;28;20977;-72
2022/06/22 16:59:28;;;;;;;1.27;1.10;;;23.50;80.00;;;;;;5033630;28;20431;-72